sensor_id;sensor_type;location;lat;lon;timestamp;pressure;altitude;pressure_sealevel;temperature;humidity
27304;BME280;14791;52.392;13.092;2023-03-01T00:01:52;102745.16;;;5.72;40.32
27304;BME280;14791;52.392;13.092;2023-03-01T00:04:20;102742.52;;;5.69;40.40
27304;BME280;14791;52.392;13.092;2023-03-01T00:06:50;102733.27;;;5.66;40.43
27304;BME280;14791;52.392;13.092;2023-03-01T00:09:19;102727.09;;;5.64;40.53
27304;BME280;14791;52.392;13.092;2023-03-01T00:11:48;102730.20;;;5.62;40.65
27304;BME280;14791;52.392;13.092;2023-03-01T00:14:17;102730.24;;;5.59;40.78
27304;BME280;14791;52.392;13.092;2023-03-01T00:16:46;102728.50;;;5.58;40.84
27304;BME280;14791;52.392;13.092;2023-03-01T00:19:17;102728.92;;;5.58;40.84
27304;BME280;14791;52.392;13.092;2023-03-01T00:21:47;102718.35;;;5.56;40.90
27304;BME280;14791;52.392;13.092;2023-03-01T00:24:16;102710.85;;;5.54;40.83
27304;BME280;14791;52.392;13.092;2023-03-01T00:26:45;102717.94;;;5.52;40.78
27304;BME280;14791;52.392;13.092;2023-03-01T00:29:14;102713.96;;;5.52;40.92
27304;BME280;14791;52.392;13.092;2023-03-01T00:31:43;102713.09;;;5.50;41.13
27304;BME280;14791;52.392;13.092;2023-03-01T00:34:12;102712.22;;;5.49;41.25
27304;BME280;14791;52.392;13.092;2023-03-01T00:36:41;102708.70;;;5.46;41.32
27304;BME280;14791;52.392;13.092;2023-03-01T00:39:12;102705.59;;;5.48;41.29
27304;BME280;14791;52.392;13.092;2023-03-01T00:41:43;102711.80;;;5.47;41.24
27304;BME280;14791;52.392;13.092;2023-03-01T00:44:12;102701.66;;;5.45;41.20
27304;BME280;14791;52.392;13.092;2023-03-01T00:46:41;102702.11;;;5.43;41.18
27304;BME280;14791;52.392;13.092;2023-03-01T00:49:12;102699.05;;;5.42;41.12
27304;BME280;14791;52.392;13.092;2023-03-01T00:51:41;102695.06;;;5.40;41.18
27304;BME280;14791;52.392;13.092;2023-03-01T00:54:10;102692.00;;;5.38;41.33
27304;BME280;14791;52.392;13.092;2023-03-01T00:56:39;102690.26;;;5.35;41.46
27304;BME280;14791;52.392;13.092;2023-03-01T00:59:08;102692.91;;;5.33;41.59
27304;BME280;14791;52.392;13.092;2023-03-01T01:01:40;102690.71;;;5.31;41.66
27304;BME280;14791;52.392;13.092;2023-03-01T01:04:11;102684.13;;;5.30;41.75
27304;BME280;14791;52.392;13.092;2023-03-01T01:06:44;102694.27;;;5.30;41.83
27304;BME280;14791;52.392;13.092;2023-03-01T01:09:15;102689.42;;;5.28;41.85
27304;BME280;14791;52.392;13.092;2023-03-01T01:11:50;102691.20;;;5.26;41.84
27304;BME280;14791;52.392;13.092;2023-03-01T01:14:20;102690.37;;;5.24;41.94
27304;BME280;14791;52.392;13.092;2023-03-01T01:16:49;102684.61;;;5.23;41.97
27304;BME280;14791;52.392;13.092;2023-03-01T01:19:18;102693.02;;;5.24;42.09
27304;BME280;14791;52.392;13.092;2023-03-01T01:21:49;102683.74;;;5.24;42.16
27304;BME280;14791;52.392;13.092;2023-03-01T01:24:20;102678.86;;;5.25;42.19
27304;BME280;14791;52.392;13.092;2023-03-01T01:26:49;102671.33;;;5.26;42.21
27304;BME280;14791;52.392;13.092;2023-03-01T01:29:18;102668.26;;;5.27;42.25
27304;BME280;14791;52.392;13.092;2023-03-01T01:31:47;102668.67;;;5.28;42.30
27304;BME280;14791;52.392;13.092;2023-03-01T01:34:21;102663.41;;;5.25;42.31
27304;BME280;14791;52.392;13.092;2023-03-01T01:36:51;102659.89;;;5.23;42.38
27304;BME280;14791;52.392;13.092;2023-03-01T01:39:23;102655.50;;;5.20;42.48
27304;BME280;14791;52.392;13.092;2023-03-01T01:41:54;102659.52;;;5.17;42.56
27304;BME280;14791;52.392;13.092;2023-03-01T01:44:26;102660.84;;;5.14;42.59
27304;BME280;14791;52.392;13.092;2023-03-01T01:47:07;102657.35;;;5.10;42.64
27304;BME280;14791;52.392;13.092;2023-03-01T01:49:45;102651.64;;;5.06;42.70
27304;BME280;14791;52.392;13.092;2023-03-01T01:55:05;102649.51;;;4.97;42.72
27304;BME280;14791;52.392;13.092;2023-03-01T01:57:35;102648.19;;;4.95;42.66
27304;BME280;14791;52.392;13.092;2023-03-01T02:00:08;102649.55;;;4.94;42.63
27304;BME280;14791;52.392;13.092;2023-03-01T02:02:45;102655.71;;;4.93;42.57
27304;BME280;14791;52.392;13.092;2023-03-01T02:05:20;102661.01;;;4.93;42.52
27304;BME280;14791;52.392;13.092;2023-03-01T02:07:49;102659.72;;;4.91;42.42
27304;BME280;14791;52.392;13.092;2023-03-01T02:10:21;102668.53;;;4.92;42.35
27304;BME280;14791;52.392;13.092;2023-03-01T02:12:52;102661.49;;;4.89;42.33
27304;BME280;14791;52.392;13.092;2023-03-01T02:15:22;102663.27;;;4.87;42.33
27304;BME280;14791;52.392;13.092;2023-03-01T02:17:53;102653.58;;;4.84;42.31
27304;BME280;14791;52.392;13.092;2023-03-01T02:22:55;102653.61;;;4.80;42.25
27304;BME280;14791;52.392;13.092;2023-03-01T02:28:21;102658.48;;;4.76;42.29
27304;BME280;14791;52.392;13.092;2023-03-01T02:30:51;102651.92;;;4.68;42.29
27304;BME280;14791;52.392;13.092;2023-03-01T02:33:40;102657.25;;;4.65;42.27
27304;BME280;14791;52.392;13.092;2023-03-01T02:36:18;102653.75;;;4.60;42.36
27304;BME280;14791;52.392;13.092;2023-03-01T02:38:42;102648.00;;;4.59;42.37
27304;BME280;14791;52.392;13.092;2023-03-01T02:41:14;102652.42;;;4.60;42.40
27304;BME280;14791;52.392;13.092;2023-03-01T02:43:44;102650.65;;;4.59;42.33
27304;BME280;14791;52.392;13.092;2023-03-01T02:46:23;102648.91;;;4.56;42.28
27304;BME280;14791;52.392;13.092;2023-03-01T02:48:51;102659.94;;;4.56;42.21
27304;BME280;14791;52.392;13.092;2023-03-01T02:51:30;102655.09;;;4.54;42.18
27304;BME280;14791;52.392;13.092;2023-03-01T02:56:48;102652.92;;;4.48;42.13
27304;BME280;14791;52.392;13.092;2023-03-01T02:59:21;102658.69;;;4.42;42.14
27304;BME280;14791;52.392;13.092;2023-03-01T03:01:51;102660.46;;;4.40;42.14
27304;BME280;14791;52.392;13.092;2023-03-01T03:04:20;102657.39;;;4.37;42.13
27304;BME280;14791;52.392;13.092;2023-03-01T03:06:51;102646.83;;;4.34;42.15
27304;BME280;14791;52.392;13.092;2023-03-01T03:09:20;102645.53;;;4.31;42.12
27304;BME280;14791;52.392;13.092;2023-03-01T03:11:49;102641.56;;;4.30;42.13
27304;BME280;14791;52.392;13.092;2023-03-01T03:14:19;102643.33;;;4.28;42.21
27304;BME280;14791;52.392;13.092;2023-03-01T03:16:50;102637.61;;;4.25;42.24
27304;BME280;14791;52.392;13.092;2023-03-01T03:19:19;102643.80;;;4.21;42.19
27304;BME280;14791;52.392;13.092;2023-03-01T03:21:49;102646.89;;;4.19;42.21
27304;BME280;14791;52.392;13.092;2023-03-01T03:24:17;102637.66;;;4.16;42.20
27304;BME280;14791;52.392;13.092;2023-03-01T03:26:46;102640.74;;;4.14;42.17
27304;BME280;14791;52.392;13.092;2023-03-01T03:29:17;102643.42;;;4.12;42.11
27304;BME280;14791;52.392;13.092;2023-03-01T03:31:46;102636.80;;;4.09;42.12
27304;BME280;14791;52.392;13.092;2023-03-01T03:34:14;102635.50;;;4.08;42.12
27304;BME280;14791;52.392;13.092;2023-03-01T03:36:45;102635.05;;;4.07;42.12
27304;BME280;14791;52.392;13.092;2023-03-01T03:39:14;102628.45;;;4.03;42.09
27304;BME280;14791;52.392;13.092;2023-03-01T03:41:43;102625.80;;;4.02;42.09
27304;BME280;14791;52.392;13.092;2023-03-01T03:44:11;102626.70;;;3.99;42.15
27304;BME280;14791;52.392;13.092;2023-03-01T03:46:40;102618.37;;;3.95;42.12
27304;BME280;14791;52.392;13.092;2023-03-01T03:49:09;102624.09;;;3.93;42.15
27304;BME280;14791;52.392;13.092;2023-03-01T03:51:38;102623.22;;;3.91;42.17
27304;BME280;14791;52.392;13.092;2023-03-01T03:54:07;102617.48;;;3.90;42.25
27304;BME280;14791;52.392;13.092;2023-03-01T03:56:36;102617.50;;;3.89;42.30
27304;BME280;14791;52.392;13.092;2023-03-01T03:59:05;102611.78;;;3.86;42.34
27304;BME280;14791;52.392;13.092;2023-03-01T04:01:33;102611.33;;;3.85;42.39
27304;BME280;14791;52.392;13.092;2023-03-01T04:04:02;102612.67;;;3.83;42.39
27304;BME280;14791;52.392;13.092;2023-03-01T04:06:31;102602.97;;;3.84;42.39
27304;BME280;14791;52.392;13.092;2023-03-01T04:09:00;102603.42;;;3.82;42.40
27304;BME280;14791;52.392;13.092;2023-03-01T04:11:30;102605.19;;;3.81;42.40
27304;BME280;14791;52.392;13.092;2023-03-01T04:13:59;102607.83;;;3.80;42.43
27304;BME280;14791;52.392;13.092;2023-03-01T04:16:28;102608.28;;;3.79;42.43
27304;BME280;14791;52.392;13.092;2023-03-01T04:18:57;102609.59;;;3.78;42.41
27304;BME280;14791;52.392;13.092;2023-03-01T04:21:27;102608.30;;;3.75;42.41
27304;BME280;14791;52.392;13.092;2023-03-01T04:23:56;102603.91;;;3.74;42.38
27304;BME280;14791;52.392;13.092;2023-03-01T04:26:26;102612.70;;;3.73;42.38
27304;BME280;14791;52.392;13.092;2023-03-01T04:28:56;102606.98;;;3.72;42.38
27304;BME280;14791;52.392;13.092;2023-03-01T04:31:25;102608.76;;;3.71;42.37
27304;BME280;14791;52.392;13.092;2023-03-01T04:33:55;102605.66;;;3.69;42.35
27304;BME280;14791;52.392;13.092;2023-03-01T04:36:26;102603.91;;;3.68;42.40
27304;BME280;14791;52.392;13.092;2023-03-01T04:38:56;102602.58;;;3.66;42.38
27304;BME280;14791;52.392;13.092;2023-03-01T04:41:25;102599.51;;;3.63;42.37
27304;BME280;14791;52.392;13.092;2023-03-01T04:43:54;102599.95;;;3.61;42.38
27304;BME280;14791;52.392;13.092;2023-03-01T04:46:23;102597.76;;;3.61;42.36
27304;BME280;14791;52.392;13.092;2023-03-01T04:48:54;102596.46;;;3.59;42.37
27304;BME280;14791;52.392;13.092;2023-03-01T04:51:23;102595.13;;;3.56;42.39
27304;BME280;14791;52.392;13.092;2023-03-01T04:53:52;102596.47;;;3.53;42.41
27304;BME280;14791;52.392;13.092;2023-03-01T04:56:21;102600.00;;;3.52;42.46
27304;BME280;14791;52.392;13.092;2023-03-01T04:58:55;102587.23;;;3.50;42.50
27304;BME280;14791;52.392;13.092;2023-03-01T05:01:23;102590.31;;;3.48;42.50
27304;BME280;14791;52.392;13.092;2023-03-01T05:03:52;102596.04;;;3.46;42.51
27304;BME280;14791;52.392;13.092;2023-03-01T05:06:22;102589.91;;;3.43;42.50
27304;BME280;14791;52.392;13.092;2023-03-01T05:08:51;102593.41;;;3.43;42.43
27304;BME280;14791;52.392;13.092;2023-03-01T05:11:20;102592.11;;;3.40;42.42
27304;BME280;14791;52.392;13.092;2023-03-01T05:13:49;102586.83;;;3.40;42.48
27304;BME280;14791;52.392;13.092;2023-03-01T05:16:19;102589.91;;;3.38;42.53
27304;BME280;14791;52.392;13.092;2023-03-01T05:18:48;102581.98;;;3.38;42.52
27304;BME280;14791;52.392;13.092;2023-03-01T05:21:18;102583.75;;;3.36;42.54
27304;BME280;14791;52.392;13.092;2023-03-01T05:23:47;102580.22;;;3.34;42.61
27304;BME280;14791;52.392;13.092;2023-03-01T05:26:18;102581.12;;;3.33;42.60
27304;BME280;14791;52.392;13.092;2023-03-01T05:28:49;102582.44;;;3.33;42.56
27304;BME280;14791;52.392;13.092;2023-03-01T05:31:19;102583.30;;;3.30;42.56
27304;BME280;14791;52.392;13.092;2023-03-01T05:33:48;102584.64;;;3.29;42.56
27304;BME280;14791;52.392;13.092;2023-03-01T05:36:17;102595.20;;;3.27;42.57
27304;BME280;14791;52.392;13.092;2023-03-01T05:38:46;102584.66;;;3.26;42.58
27304;BME280;14791;52.392;13.092;2023-03-01T05:41:15;102581.13;;;3.24;42.55
27304;BME280;14791;52.392;13.092;2023-03-01T05:43:44;102580.25;;;3.22;42.59
27304;BME280;14791;52.392;13.092;2023-03-01T05:46:13;102589.06;;;3.19;42.59
27304;BME280;14791;52.392;13.092;2023-03-01T05:48:42;102591.24;;;3.18;42.61
27304;BME280;14791;52.392;13.092;2023-03-01T05:51:12;102588.17;;;3.15;42.63
27304;BME280;14791;52.392;13.092;2023-03-01T05:53:40;102588.17;;;3.15;42.63
27304;BME280;14791;52.392;13.092;2023-03-01T05:56:09;102587.28;;;3.13;42.61
27304;BME280;14791;52.392;13.092;2023-03-01T05:58:38;102587.75;;;3.11;42.62
27304;BME280;14791;52.392;13.092;2023-03-01T06:01:12;102595.23;;;3.12;42.63
27304;BME280;14791;52.392;13.092;2023-03-01T06:03:41;102599.64;;;3.11;42.67
27304;BME280;14791;52.392;13.092;2023-03-01T06:06:10;102591.70;;;3.08;42.75
27304;BME280;14791;52.392;13.092;2023-03-01T06:08:39;102581.16;;;3.07;42.83
27304;BME280;14791;52.392;13.092;2023-03-01T06:11:09;102583.34;;;3.06;42.91
27304;BME280;14791;52.392;13.092;2023-03-01T06:13:38;102576.75;;;3.07;42.93
27304;BME280;14791;52.392;13.092;2023-03-01T06:16:07;102584.23;;;3.09;42.97
27304;BME280;14791;52.392;13.092;2023-03-01T06:18:37;102583.34;;;3.10;42.99
27304;BME280;14791;52.392;13.092;2023-03-01T06:21:07;102582.03;;;3.12;43.02
27304;BME280;14791;52.392;13.092;2023-03-01T06:23:36;102578.50;;;3.14;43.09
27304;BME280;14791;52.392;13.092;2023-03-01T06:26:07;102583.77;;;3.17;43.11
27304;BME280;14791;52.392;13.092;2023-03-01T06:28:36;102585.08;;;3.20;43.13
27304;BME280;14791;52.392;13.092;2023-03-01T06:31:05;102581.13;;;3.24;43.15
27304;BME280;14791;52.392;13.092;2023-03-01T06:33:35;102578.92;;;3.26;43.26
27304;BME280;14791;52.392;13.092;2023-03-01T06:36:07;102589.89;;;3.30;43.30
27304;BME280;14791;52.392;13.092;2023-03-01T06:38:54;102583.77;;;3.33;43.37
27304;BME280;14791;52.392;13.092;2023-03-01T06:41:23;102586.37;;;3.39;43.40
27304;BME280;14791;52.392;13.092;2023-03-01T06:43:52;102585.04;;;3.44;43.43
27304;BME280;14791;52.392;13.092;2023-03-01T06:46:22;102585.03;;;3.48;43.47
27304;BME280;14791;52.392;13.092;2023-03-01T06:48:51;102583.25;;;3.53;43.58
27304;BME280;14791;52.392;13.092;2023-03-01T06:51:20;102583.25;;;3.59;43.64
27304;BME280;14791;52.392;13.092;2023-03-01T06:54:10;102585.42;;;3.65;43.70
27304;BME280;14791;52.392;13.092;2023-03-01T06:56:39;102583.19;;;3.70;43.83
27304;BME280;14791;52.392;13.092;2023-03-01T06:59:08;102580.97;;;3.79;43.92
27304;BME280;14791;52.392;13.092;2023-03-01T07:01:37;102570.34;;;3.85;44.02
27304;BME280;14791;52.392;13.092;2023-03-01T07:04:06;102579.14;;;3.93;44.11
27304;BME280;14791;52.392;13.092;2023-03-01T07:06:35;102583.52;;;4.00;44.31
27304;BME280;14791;52.392;13.092;2023-03-01T07:09:04;102589.63;;;4.09;44.40
27304;BME280;14791;52.392;13.092;2023-03-01T07:11:33;102587.40;;;4.17;44.50
27304;BME280;14791;52.392;13.092;2023-03-01T07:14:03;102596.61;;;4.26;44.57
27304;BME280;14791;52.392;13.092;2023-03-01T07:16:32;102593.91;;;4.36;44.71
27304;BME280;14791;52.392;13.092;2023-03-01T07:19:01;102594.28;;;4.44;44.82
27304;BME280;14791;52.392;13.092;2023-03-01T07:21:30;102592.00;;;4.55;44.94
27304;BME280;14791;52.392;13.092;2023-03-01T07:24:00;102598.97;;;4.66;44.92
27304;BME280;14791;52.392;13.092;2023-03-01T07:26:29;102595.80;;;4.76;44.94
27304;BME280;14791;52.392;13.092;2023-03-01T07:29:00;102599.71;;;4.85;44.95
27304;BME280;14791;52.392;13.092;2023-03-01T07:31:29;102600.09;;;4.96;44.96
27304;BME280;14791;52.392;13.092;2023-03-01T07:33:58;102604.41;;;5.06;44.96
27304;BME280;14791;52.392;13.092;2023-03-01T07:36:27;102602.09;;;5.16;44.92
27304;BME280;14791;52.392;13.092;2023-03-01T07:38:56;102605.98;;;5.25;44.96
27304;BME280;14791;52.392;13.092;2023-03-01T07:41:25;102593.94;;;5.36;44.96
27304;BME280;14791;52.392;13.092;2023-03-01T07:43:55;102600.47;;;5.47;44.91
27304;BME280;14791;52.392;13.092;2023-03-01T07:46:24;102599.92;;;5.55;44.85
27304;BME280;14791;52.392;13.092;2023-03-01T07:48:52;102594.98;;;5.62;44.81
27304;BME280;14791;52.392;13.092;2023-03-01T07:51:22;102598.91;;;5.68;44.79
27304;BME280;14791;52.392;13.092;2023-03-01T07:53:52;102599.72;;;5.75;44.76
27304;BME280;14791;52.392;13.092;2023-03-01T07:56:20;102597.02;;;5.80;44.73
27304;BME280;14791;52.392;13.092;2023-03-01T07:58:50;102592.98;;;5.84;44.75
27304;BME280;14791;52.392;13.092;2023-03-01T08:01:20;102587.13;;;5.91;44.77
27304;BME280;14791;52.392;13.092;2023-03-01T08:03:49;102596.80;;;5.98;44.75
27304;BME280;14791;52.392;13.092;2023-03-01T08:06:18;102600.26;;;6.05;44.67
27304;BME280;14791;52.392;13.092;2023-03-01T08:08:47;102599.28;;;6.10;44.69
27304;BME280;14791;52.392;13.092;2023-03-01T08:11:19;102597.84;;;6.20;44.68
27304;BME280;14791;52.392;13.092;2023-03-01T08:13:48;102594.61;;;6.29;44.62
27304;BME280;14791;52.392;13.092;2023-03-01T08:16:17;102592.27;;;6.39;44.54
27304;BME280;14791;52.392;13.092;2023-03-01T08:18:46;102585.92;;;6.48;44.47
27304;BME280;14791;52.392;13.092;2023-03-01T08:21:18;102582.25;;;6.58;44.36
27304;BME280;14791;52.392;13.092;2023-03-01T08:23:47;102582.53;;;6.69;44.28
27304;BME280;14791;52.392;13.092;2023-03-01T08:26:19;102579.28;;;6.77;44.22
27304;BME280;14791;52.392;13.092;2023-03-01T08:28:49;102578.25;;;6.87;44.18
27304;BME280;14791;52.392;13.092;2023-03-01T08:31:24;102578.97;;;6.97;44.13
27304;BME280;14791;52.392;13.092;2023-03-01T08:33:55;102582.81;;;7.05;44.01
27304;BME280;14791;52.392;13.092;2023-03-01T08:36:28;102571.17;;;7.12;43.88
27304;BME280;14791;52.392;13.092;2023-03-01T08:38:57;102571.89;;;7.20;43.82
27304;BME280;14791;52.392;13.092;2023-03-01T08:41:26;102573.53;;;7.27;43.76
27304;BME280;14791;52.392;13.092;2023-03-01T08:43:56;102570.30;;;7.35;43.71
27304;BME280;14791;52.392;13.092;2023-03-01T08:46:34;102569.69;;;7.43;43.71
27304;BME280;14791;52.392;13.092;2023-03-01T08:49:06;102571.73;;;7.52;43.67
27304;BME280;14791;52.392;13.092;2023-03-01T08:51:36;102576.02;;;7.59;43.58
27304;BME280;14791;52.392;13.092;2023-03-01T08:54:06;102570.96;;;7.69;43.60
27304;BME280;14791;52.392;13.092;2023-03-01T08:56:35;102569.85;;;7.79;43.43
27304;BME280;14791;52.392;13.092;2023-03-01T08:59:04;102566.95;;;7.90;43.27
27304;BME280;14791;52.392;13.092;2023-03-01T09:01:34;102572.47;;;8.02;43.10
27304;BME280;14791;52.392;13.092;2023-03-01T09:04:04;102569.14;;;8.12;42.94
27304;BME280;14791;52.392;13.092;2023-03-01T09:06:34;102561.86;;;8.21;42.74
27304;BME280;14791;52.392;13.092;2023-03-01T09:09:04;102565.19;;;8.31;42.52
27304;BME280;14791;52.392;13.092;2023-03-01T09:11:34;102557.01;;;8.39;42.36
27304;BME280;14791;52.392;13.092;2023-03-01T09:14:04;102562.18;;;8.46;42.23
27304;BME280;14791;52.392;13.092;2023-03-01T09:16:34;102559.33;;;8.54;42.15
27304;BME280;14791;52.392;13.092;2023-03-01T09:19:04;102558.73;;;8.61;42.06
27304;BME280;14791;52.392;13.092;2023-03-01T09:21:33;102559.47;;;8.67;41.93
27304;BME280;14791;52.392;13.092;2023-03-01T09:24:02;102551.82;;;8.71;41.86
27304;BME280;14791;52.392;13.092;2023-03-01T09:26:32;102554.78;;;8.77;41.75
27304;BME280;14791;52.392;13.092;2023-03-01T09:29:01;102547.07;;;8.83;41.65
27304;BME280;14791;52.392;13.092;2023-03-01T09:31:30;102552.29;;;8.87;41.40
27304;BME280;14791;52.392;13.092;2023-03-01T09:33:59;102550.00;;;8.90;41.25
27304;BME280;14791;52.392;13.092;2023-03-01T09:36:29;102545.51;;;8.92;41.04
27304;BME280;14791;52.392;13.092;2023-03-01T09:38:58;102542.35;;;8.94;40.85
27304;BME280;14791;52.392;13.092;2023-03-01T09:41:50;102542.27;;;8.97;40.71
27304;BME280;14791;52.392;13.092;2023-03-01T09:44:23;102536.84;;;9.00;40.68
27304;BME280;14791;52.392;13.092;2023-03-01T09:46:51;102546.70;;;8.98;40.65
27304;BME280;14791;52.392;13.092;2023-03-01T09:49:26;102539.95;;;9.01;40.67
27304;BME280;14791;52.392;13.092;2023-03-01T09:52:40;102536.29;;;9.05;40.53
27304;BME280;14791;52.392;13.092;2023-03-01T09:54:30;102537.44;;;9.11;40.43
27304;BME280;14791;52.392;13.092;2023-03-01T09:57:20;102532.85;;;9.16;40.31
27304;BME280;14791;52.392;13.092;2023-03-01T10:00:03;102533.10;;;9.24;40.18
27304;BME280;14791;52.392;13.092;2023-03-01T10:02:41;102532.14;;;9.26;40.26
27304;BME280;14791;52.392;13.092;2023-03-01T10:10:36;102534.77;;;9.44;40.05
27304;BME280;14791;52.392;13.092;2023-03-01T10:13:23;102527.51;;;9.49;39.90
27304;BME280;14791;52.392;13.092;2023-03-01T10:15:55;102531.34;;;9.55;39.83
27304;BME280;14791;52.392;13.092;2023-03-01T10:18:30;102532.58;;;9.58;39.76
27304;BME280;14791;52.392;13.092;2023-03-01T10:21:03;102536.82;;;9.66;39.69
27304;BME280;14791;52.392;13.092;2023-03-01T10:23:33;102536.69;;;9.70;39.56
27304;BME280;14791;52.392;13.092;2023-03-01T10:29:10;102533.19;;;9.83;39.40
27304;BME280;14791;52.392;13.092;2023-03-01T10:31:46;102533.92;;;9.88;39.29
27304;BME280;14791;52.392;13.092;2023-03-01T10:34:26;102532.55;;;9.90;39.32
27304;BME280;14791;52.392;13.092;2023-03-01T10:36:55;102530.64;;;9.93;39.36
27304;BME280;14791;52.392;13.092;2023-03-01T10:39:25;102532.27;;;9.99;39.09
27304;BME280;14791;52.392;13.092;2023-03-01T10:42:05;102526.73;;;10.05;38.95
27304;BME280;14791;52.392;13.092;2023-03-01T10:44:46;102525.68;;;10.11;38.96
27304;BME280;14791;52.392;13.092;2023-03-01T10:50:00;102522.40;;;10.16;38.55
27304;BME280;14791;52.392;13.092;2023-03-01T10:52:40;102517.38;;;10.20;38.42
27304;BME280;14791;52.392;13.092;2023-03-01T11:00:48;102503.41;;;10.25;38.22
27304;BME280;14791;52.392;13.092;2023-03-01T11:03:20;102499.81;;;10.26;38.31
27304;BME280;14791;52.392;13.092;2023-03-01T11:06:04;102495.77;;;10.28;38.25
27304;BME280;14791;52.392;13.092;2023-03-01T11:08:47;102496.09;;;10.32;38.34
27304;BME280;14791;52.392;13.092;2023-03-01T11:14:17;102492.77;;;10.38;38.09
27304;BME280;14791;52.392;13.092;2023-03-01T11:16:41;102484.27;;;10.39;38.21
27304;BME280;14791;52.392;13.092;2023-03-01T11:19:14;102489.90;;;10.45;38.18
27304;BME280;14791;52.392;13.092;2023-03-01T11:22:05;102476.31;;;10.51;38.00
27304;BME280;14791;52.392;13.092;2023-03-01T11:24:48;102476.31;;;10.51;38.00
27304;BME280;14791;52.392;13.092;2023-03-01T11:27:26;102477.22;;;10.51;37.71
27304;BME280;14791;52.392;13.092;2023-03-01T11:33:14;102468.06;;;10.58;37.54
27304;BME280;14791;52.392;13.092;2023-03-01T11:35:25;102467.59;;;10.59;37.61
27304;BME280;14791;52.392;13.092;2023-03-01T11:58:11;102455.10;;;10.84;37.46
27304;BME280;14791;52.392;13.092;2023-03-01T12:00:54;102449.71;;;10.86;37.25
27304;BME280;14791;52.392;13.092;2023-03-01T12:06:50;102438.10;;;10.99;37.53
27304;BME280;14791;52.392;13.092;2023-03-01T12:09:34;102438.10;;;10.99;37.53
27304;BME280;14791;52.392;13.092;2023-03-01T12:20:47;102428.03;;;11.31;36.82
27304;BME280;14791;52.392;13.092;2023-03-01T12:37:17;102413.90;;;11.73;36.15
27304;BME280;14791;52.392;13.092;2023-03-01T12:48:29;102405.71;;;11.99;35.85
27304;BME280;14791;52.392;13.092;2023-03-01T12:50:59;102397.83;;;12.06;35.73
27304;BME280;14791;52.392;13.092;2023-03-01T12:53:34;102395.72;;;12.15;35.98
27304;BME280;14791;52.392;13.092;2023-03-01T12:56:05;102394.00;;;12.24;35.71
27304;BME280;14791;52.392;13.092;2023-03-01T13:01:35;102380.52;;;12.66;36.26
27304;BME280;14791;52.392;13.092;2023-03-01T13:04:33;102381.79;;;13.28;36.13
27304;BME280;14791;52.392;13.092;2023-03-01T13:07:19;102371.75;;;14.14;36.18
27304;BME280;14791;52.392;13.092;2023-03-01T13:10:11;102374.52;;;15.16;35.96
27304;BME280;14791;52.392;13.092;2023-03-01T13:15:36;102364.15;;;17.21;34.88
27304;BME280;14791;52.392;13.092;2023-03-01T13:18:27;102363.00;;;18.21;33.96
27304;BME280;14791;52.392;13.092;2023-03-01T13:26:10;102352.89;;;20.70;31.72
27304;BME280;14791;52.392;13.092;2023-03-01T13:34:00;102347.34;;;22.20;29.63
27304;BME280;14791;52.392;13.092;2023-03-01T13:39:29;102331.36;;;22.63;28.83
27304;BME280;14791;52.392;13.092;2023-03-01T13:42:00;102334.13;;;22.73;28.40
27304;BME280;14791;52.392;13.092;2023-03-01T13:44:33;102333.80;;;22.66;28.07
27304;BME280;14791;52.392;13.092;2023-03-01T13:49:50;102335.50;;;22.37;27.41
27304;BME280;14791;52.392;13.092;2023-03-01T13:55:01;102338.84;;;22.08;27.18
27304;BME280;14791;52.392;13.092;2023-03-01T13:57:33;102332.83;;;21.93;27.18
27304;BME280;14791;52.392;13.092;2023-03-01T14:00:03;102333.36;;;21.87;27.16
27304;BME280;14791;52.392;13.092;2023-03-01T14:02:32;102332.52;;;21.81;27.26
27304;BME280;14791;52.392;13.092;2023-03-01T14:05:01;102331.66;;;21.80;27.18
27304;BME280;14791;52.392;13.092;2023-03-01T14:07:30;102329.55;;;21.78;27.02
27304;BME280;14791;52.392;13.092;2023-03-01T14:10:04;102320.42;;;21.79;27.06
27304;BME280;14791;52.392;13.092;2023-03-01T14:12:55;102317.79;;;21.83;27.04
27304;BME280;14791;52.392;13.092;2023-03-01T14:15:33;102311.48;;;21.88;27.11
27304;BME280;14791;52.392;13.092;2023-03-01T14:18:14;102313.39;;;21.98;27.32
27304;BME280;14791;52.392;13.092;2023-03-01T14:20:44;102313.45;;;22.13;27.29
27304;BME280;14791;52.392;13.092;2023-03-01T14:23:20;102309.81;;;22.29;27.24
27304;BME280;14791;52.392;13.092;2023-03-01T14:25:52;102294.50;;;22.44;26.86
27304;BME280;14791;52.392;13.092;2023-03-01T14:30:58;102293.13;;;22.59;26.36
27304;BME280;14791;52.392;13.092;2023-03-01T14:33:35;102298.86;;;22.56;26.12
27304;BME280;14791;52.392;13.092;2023-03-01T14:36:10;102285.55;;;22.47;25.92
27304;BME280;14791;52.392;13.092;2023-03-01T14:38:47;102284.77;;;22.36;25.76
27304;BME280;14791;52.392;13.092;2023-03-01T14:41:24;102272.96;;;22.25;25.80
27304;BME280;14791;52.392;13.092;2023-03-01T14:43:57;102274.11;;;22.17;25.97
27304;BME280;14791;52.392;13.092;2023-03-01T14:46:38;102272.26;;;22.12;26.02
27304;BME280;14791;52.392;13.092;2023-03-01T14:49:13;102273.27;;;22.11;26.10
27304;BME280;14791;52.392;13.092;2023-03-01T14:52:04;102268.56;;;22.13;26.17
27304;BME280;14791;52.392;13.092;2023-03-01T14:57:20;102275.69;;;22.25;26.06
27304;BME280;14791;52.392;13.092;2023-03-01T14:59:54;102271.09;;;22.26;26.12
27304;BME280;14791;52.392;13.092;2023-03-01T15:02:28;102262.53;;;22.30;25.95
27304;BME280;14791;52.392;13.092;2023-03-01T15:05:01;102262.25;;;22.34;25.69
27304;BME280;14791;52.392;13.092;2023-03-01T15:07:35;102262.53;;;22.30;25.44
27304;BME280;14791;52.392;13.092;2023-03-01T15:10:05;102263.09;;;22.24;25.30